sensor_id;sensor_type;location;lat;lon;timestamp;P1;durP1;ratioP1;P2;durP2;ratioP2
75059;SDS011;63640;59.264;18.116;2023-04-25T00:01:35;8.38;;;3.35;;
75059;SDS011;63640;59.264;18.116;2023-04-25T00:04:01;7.28;;;3.42;;
75059;SDS011;63640;59.264;18.116;2023-04-25T00:06:27;9.68;;;3.58;;
75059;SDS011;63640;59.264;18.116;2023-04-25T00:08:55;8.93;;;4.13;;
75059;SDS011;63640;59.264;18.116;2023-04-25T00:11:21;8.40;;;3.42;;
75059;SDS011;63640;59.264;18.116;2023-04-25T00:13:47;10.50;;;3.58;;
75059;SDS011;63640;59.264;18.116;2023-04-25T00:16:14;6.85;;;3.42;;
75059;SDS011;63640;59.264;18.116;2023-04-25T00:18:41;7.93;;;3.35;;
75059;SDS011;63640;59.264;18.116;2023-04-25T00:21:07;8.75;;;4.07;;
75059;SDS011;63640;59.264;18.116;2023-04-25T00:23:32;8.52;;;3.47;;
75059;SDS011;63640;59.264;18.116;2023-04-25T00:25:58;7.53;;;3.60;;
75059;SDS011;63640;59.264;18.116;2023-04-25T00:28:23;9.18;;;4.47;;
75059;SDS011;63640;59.264;18.116;2023-04-25T00:30:49;8.95;;;3.75;;
75059;SDS011;63640;59.264;18.116;2023-04-25T00:33:15;7.80;;;3.30;;
75059;SDS011;63640;59.264;18.116;2023-04-25T00:35:40;6.88;;;3.30;;
75059;SDS011;63640;59.264;18.116;2023-04-25T00:38:06;6.78;;;2.75;;
75059;SDS011;63640;59.264;18.116;2023-04-25T00:40:31;5.72;;;2.63;;
75059;SDS011;63640;59.264;18.116;2023-04-25T00:42:57;7.80;;;2.88;;
75059;SDS011;63640;59.264;18.116;2023-04-25T00:45:23;6.72;;;3.05;;
75059;SDS011;63640;59.264;18.116;2023-04-25T00:47:53;7.07;;;3.00;;
75059;SDS011;63640;59.264;18.116;2023-04-25T00:50:19;7.07;;;2.85;;
75059;SDS011;63640;59.264;18.116;2023-04-25T00:52:45;7.97;;;3.53;;
75059;SDS011;63640;59.264;18.116;2023-04-25T00:55:11;7.32;;;3.10;;
75059;SDS011;63640;59.264;18.116;2023-04-25T00:57:37;7.53;;;3.15;;
75059;SDS011;63640;59.264;18.116;2023-04-25T01:00:04;6.18;;;2.63;;
75059;SDS011;63640;59.264;18.116;2023-04-25T01:02:31;6.40;;;2.90;;
75059;SDS011;63640;59.264;18.116;2023-04-25T01:04:57;8.18;;;2.97;;
75059;SDS011;63640;59.264;18.116;2023-04-25T01:07:23;6.45;;;2.42;;
75059;SDS011;63640;59.264;18.116;2023-04-25T01:09:49;7.13;;;2.70;;
75059;SDS011;63640;59.264;18.116;2023-04-25T01:12:16;4.97;;;2.15;;
75059;SDS011;63640;59.264;18.116;2023-04-25T01:14:42;6.53;;;2.83;;
75059;SDS011;63640;59.264;18.116;2023-04-25T01:17:08;7.55;;;2.58;;
75059;SDS011;63640;59.264;18.116;2023-04-25T01:19:34;5.05;;;1.92;;
75059;SDS011;63640;59.264;18.116;2023-04-25T01:21:59;5.22;;;2.05;;
75059;SDS011;63640;59.264;18.116;2023-04-25T01:24:25;5.30;;;1.77;;
75059;SDS011;63640;59.264;18.116;2023-04-25T01:26:51;5.35;;;2.10;;
75059;SDS011;63640;59.264;18.116;2023-04-25T01:29:17;4.90;;;1.92;;
75059;SDS011;63640;59.264;18.116;2023-04-25T01:31:44;4.45;;;1.73;;
75059;SDS011;63640;59.264;18.116;2023-04-25T01:34:10;3.88;;;1.65;;
75059;SDS011;63640;59.264;18.116;2023-04-25T01:36:36;4.82;;;2.00;;
75059;SDS011;63640;59.264;18.116;2023-04-25T01:39:01;7.45;;;2.10;;
75059;SDS011;63640;59.264;18.116;2023-04-25T01:41:27;3.88;;;1.45;;
75059;SDS011;63640;59.264;18.116;2023-04-25T01:43:53;15.40;;;1.90;;
75059;SDS011;63640;59.264;18.116;2023-04-25T01:46:19;6.40;;;1.80;;
75059;SDS011;63640;59.264;18.116;2023-04-25T01:48:44;6.28;;;1.67;;
75059;SDS011;63640;59.264;18.116;2023-04-25T01:51:10;4.47;;;1.50;;
75059;SDS011;63640;59.264;18.116;2023-04-25T01:53:36;4.88;;;1.70;;
75059;SDS011;63640;59.264;18.116;2023-04-25T01:56:03;4.78;;;1.80;;
75059;SDS011;63640;59.264;18.116;2023-04-25T01:58:28;4.18;;;1.13;;
75059;SDS011;63640;59.264;18.116;2023-04-25T02:00:54;3.88;;;1.45;;
75059;SDS011;63640;59.264;18.116;2023-04-25T02:03:20;3.65;;;1.20;;
75059;SDS011;63640;59.264;18.116;2023-04-25T02:05:45;4.10;;;1.23;;
75059;SDS011;63640;59.264;18.116;2023-04-25T02:08:11;3.42;;;1.20;;
75059;SDS011;63640;59.264;18.116;2023-04-25T02:10:36;3.75;;;1.45;;
75059;SDS011;63640;59.264;18.116;2023-04-25T02:13:02;3.70;;;1.30;;
75059;SDS011;63640;59.264;18.116;2023-04-25T02:15:30;4.03;;;1.17;;
75059;SDS011;63640;59.264;18.116;2023-04-25T02:17:56;3.80;;;1.17;;
75059;SDS011;63640;59.264;18.116;2023-04-25T02:20:21;3.55;;;1.20;;
75059;SDS011;63640;59.264;18.116;2023-04-25T02:22:48;5.10;;;1.38;;
75059;SDS011;63640;59.264;18.116;2023-04-25T02:25:13;3.33;;;1.10;;
75059;SDS011;63640;59.264;18.116;2023-04-25T02:27:41;3.03;;;1.10;;
75059;SDS011;63640;59.264;18.116;2023-04-25T02:30:07;3.70;;;1.25;;
75059;SDS011;63640;59.264;18.116;2023-04-25T02:32:33;4.10;;;1.20;;
75059;SDS011;63640;59.264;18.116;2023-04-25T02:35:02;3.65;;;1.10;;
75059;SDS011;63640;59.264;18.116;2023-04-25T02:37:32;3.85;;;1.30;;
75059;SDS011;63640;59.264;18.116;2023-04-25T02:39:58;3.83;;;1.30;;
75059;SDS011;63640;59.264;18.116;2023-04-25T02:42:24;3.38;;;1.13;;
75059;SDS011;63640;59.264;18.116;2023-04-25T02:44:51;5.22;;;1.50;;
75059;SDS011;63640;59.264;18.116;2023-04-25T02:47:16;4.47;;;1.33;;
75059;SDS011;63640;59.264;18.116;2023-04-25T02:49:42;3.42;;;1.23;;
75059;SDS011;63640;59.264;18.116;2023-04-25T02:52:07;3.22;;;1.13;;
75059;SDS011;63640;59.264;18.116;2023-04-25T02:54:33;3.40;;;1.27;;
75059;SDS011;63640;59.264;18.116;2023-04-25T02:56:59;3.60;;;1.30;;
75059;SDS011;63640;59.264;18.116;2023-04-25T02:59:25;4.65;;;1.50;;
75059;SDS011;63640;59.264;18.116;2023-04-25T03:01:51;3.92;;;1.35;;
75059;SDS011;63640;59.264;18.116;2023-04-25T03:04:16;3.88;;;1.45;;
75059;SDS011;63640;59.264;18.116;2023-04-25T03:06:44;5.15;;;1.42;;
75059;SDS011;63640;59.264;18.116;2023-04-25T03:09:09;4.32;;;1.30;;
75059;SDS011;63640;59.264;18.116;2023-04-25T03:11:35;3.80;;;1.42;;
75059;SDS011;63640;59.264;18.116;2023-04-25T03:14:01;3.50;;;1.20;;
75059;SDS011;63640;59.264;18.116;2023-04-25T03:16:27;4.60;;;1.60;;
75059;SDS011;63640;59.264;18.116;2023-04-25T03:18:53;5.03;;;1.50;;
75059;SDS011;63640;59.264;18.116;2023-04-25T03:21:18;3.88;;;1.42;;
75059;SDS011;63640;59.264;18.116;2023-04-25T03:23:44;4.72;;;1.52;;
75059;SDS011;63640;59.264;18.116;2023-04-25T03:26:09;4.13;;;1.25;;
75059;SDS011;63640;59.264;18.116;2023-04-25T03:28:35;4.20;;;1.63;;
75059;SDS011;63640;59.264;18.116;2023-04-25T03:31:00;4.20;;;1.52;;
75059;SDS011;63640;59.264;18.116;2023-04-25T03:33:26;4.32;;;1.50;;
75059;SDS011;63640;59.264;18.116;2023-04-25T03:35:51;4.70;;;2.13;;
75059;SDS011;63640;59.264;18.116;2023-04-25T03:38:18;5.20;;;1.88;;
75059;SDS011;63640;59.264;18.116;2023-04-25T03:40:43;4.72;;;1.83;;
75059;SDS011;63640;59.264;18.116;2023-04-25T03:43:09;4.22;;;1.50;;
75059;SDS011;63640;59.264;18.116;2023-04-25T03:45:35;6.13;;;2.08;;
75059;SDS011;63640;59.264;18.116;2023-04-25T03:48:00;4.82;;;1.77;;
75059;SDS011;63640;59.264;18.116;2023-04-25T03:50:26;4.80;;;1.73;;
75059;SDS011;63640;59.264;18.116;2023-04-25T03:52:51;5.65;;;2.08;;
75059;SDS011;63640;59.264;18.116;2023-04-25T03:55:16;6.28;;;2.08;;
75059;SDS011;63640;59.264;18.116;2023-04-25T03:57:42;5.18;;;2.15;;
75059;SDS011;63640;59.264;18.116;2023-04-25T04:00:08;5.70;;;2.40;;
75059;SDS011;63640;59.264;18.116;2023-04-25T04:02:34;6.45;;;1.83;;
75059;SDS011;63640;59.264;18.116;2023-04-25T04:05:01;7.05;;;2.53;;
75059;SDS011;63640;59.264;18.116;2023-04-25T04:07:28;6.05;;;2.45;;
75059;SDS011;63640;59.264;18.116;2023-04-25T04:09:54;6.70;;;2.85;;
75059;SDS011;63640;59.264;18.116;2023-04-25T04:12:19;5.95;;;2.70;;
75059;SDS011;63640;59.264;18.116;2023-04-25T04:14:45;5.82;;;2.40;;
75059;SDS011;63640;59.264;18.116;2023-04-25T04:17:10;5.53;;;2.30;;
75059;SDS011;63640;59.264;18.116;2023-04-25T04:19:36;5.43;;;2.33;;
75059;SDS011;63640;59.264;18.116;2023-04-25T04:22:01;6.75;;;2.95;;
75059;SDS011;63640;59.264;18.116;2023-04-25T04:24:26;6.13;;;2.63;;
75059;SDS011;63640;59.264;18.116;2023-04-25T04:26:52;5.53;;;2.53;;
75059;SDS011;63640;59.264;18.116;2023-04-25T04:29:18;8.88;;;2.53;;
75059;SDS011;63640;59.264;18.116;2023-04-25T04:31:49;6.43;;;2.95;;
75059;SDS011;63640;59.264;18.116;2023-04-25T04:34:16;7.18;;;2.70;;
75059;SDS011;63640;59.264;18.116;2023-04-25T04:36:43;8.70;;;3.42;;
75059;SDS011;63640;59.264;18.116;2023-04-25T04:39:10;7.15;;;2.60;;
75059;SDS011;63640;59.264;18.116;2023-04-25T04:41:35;8.18;;;2.95;;
75059;SDS011;63640;59.264;18.116;2023-04-25T04:44:01;6.55;;;2.92;;
75059;SDS011;63640;59.264;18.116;2023-04-25T04:46:26;7.30;;;3.53;;
75059;SDS011;63640;59.264;18.116;2023-04-25T04:48:53;6.05;;;2.88;;
75059;SDS011;63640;59.264;18.116;2023-04-25T04:51:18;7.10;;;3.35;;
75059;SDS011;63640;59.264;18.116;2023-04-25T04:53:45;7.88;;;3.08;;
75059;SDS011;63640;59.264;18.116;2023-04-25T04:56:11;7.15;;;2.92;;
75059;SDS011;63640;59.264;18.116;2023-04-25T04:58:36;8.65;;;3.10;;
75059;SDS011;63640;59.264;18.116;2023-04-25T05:01:02;8.43;;;3.90;;
75059;SDS011;63640;59.264;18.116;2023-04-25T05:03:28;10.75;;;3.83;;
75059;SDS011;63640;59.264;18.116;2023-04-25T05:05:53;11.80;;;4.65;;
75059;SDS011;63640;59.264;18.116;2023-04-25T05:08:19;7.38;;;3.50;;
75059;SDS011;63640;59.264;18.116;2023-04-25T05:10:44;6.88;;;3.33;;
75059;SDS011;63640;59.264;18.116;2023-04-25T05:13:10;12.65;;;4.22;;
75059;SDS011;63640;59.264;18.116;2023-04-25T05:15:35;9.77;;;3.58;;
75059;SDS011;63640;59.264;18.116;2023-04-25T05:18:01;11.05;;;4.03;;
75059;SDS011;63640;59.264;18.116;2023-04-25T05:20:27;10.25;;;3.90;;
75059;SDS011;63640;59.264;18.116;2023-04-25T05:22:52;11.60;;;4.20;;
75059;SDS011;63640;59.264;18.116;2023-04-25T05:25:18;8.20;;;3.83;;
75059;SDS011;63640;59.264;18.116;2023-04-25T05:27:43;7.93;;;3.75;;
75059;SDS011;63640;59.264;18.116;2023-04-25T05:30:09;13.85;;;4.07;;
75059;SDS011;63640;59.264;18.116;2023-04-25T05:32:35;10.32;;;3.88;;
75059;SDS011;63640;59.264;18.116;2023-04-25T05:35:01;11.48;;;4.05;;
75059;SDS011;63640;59.264;18.116;2023-04-25T05:37:26;13.25;;;3.97;;
75059;SDS011;63640;59.264;18.116;2023-04-25T05:39:52;8.77;;;3.58;;
75059;SDS011;63640;59.264;18.116;2023-04-25T05:42:18;9.25;;;3.92;;
75059;SDS011;63640;59.264;18.116;2023-04-25T05:44:44;9.05;;;3.65;;
75059;SDS011;63640;59.264;18.116;2023-04-25T05:47:09;6.45;;;2.80;;
75059;SDS011;63640;59.264;18.116;2023-04-25T05:49:35;11.60;;;4.05;;
75059;SDS011;63640;59.264;18.116;2023-04-25T05:52:00;10.90;;;3.95;;
75059;SDS011;63640;59.264;18.116;2023-04-25T05:54:26;9.02;;;3.63;;
75059;SDS011;63640;59.264;18.116;2023-04-25T05:56:51;7.80;;;3.63;;
75059;SDS011;63640;59.264;18.116;2023-04-25T05:59:17;7.00;;;2.72;;
75059;SDS011;63640;59.264;18.116;2023-04-25T06:01:42;8.20;;;3.15;;
75059;SDS011;63640;59.264;18.116;2023-04-25T06:04:08;7.30;;;3.13;;
75059;SDS011;63640;59.264;18.116;2023-04-25T06:06:34;7.60;;;2.70;;
75059;SDS011;63640;59.264;18.116;2023-04-25T06:08:59;7.07;;;2.95;;
75059;SDS011;63640;59.264;18.116;2023-04-25T06:11:25;5.53;;;2.53;;
75059;SDS011;63640;59.264;18.116;2023-04-25T06:13:50;6.45;;;3.08;;
75059;SDS011;63640;59.264;18.116;2023-04-25T06:16:16;6.88;;;2.78;;
75059;SDS011;63640;59.264;18.116;2023-04-25T06:18:41;7.35;;;2.42;;
75059;SDS011;63640;59.264;18.116;2023-04-25T06:21:07;8.00;;;2.90;;
75059;SDS011;63640;59.264;18.116;2023-04-25T06:23:33;6.60;;;3.00;;
75059;SDS011;63640;59.264;18.116;2023-04-25T06:25:59;8.23;;;3.10;;
75059;SDS011;63640;59.264;18.116;2023-04-25T06:28:24;6.68;;;2.50;;
75059;SDS011;63640;59.264;18.116;2023-04-25T06:30:50;6.53;;;2.50;;
75059;SDS011;63640;59.264;18.116;2023-04-25T06:33:16;6.72;;;2.33;;
75059;SDS011;63640;59.264;18.116;2023-04-25T06:35:41;5.50;;;2.30;;
75059;SDS011;63640;59.264;18.116;2023-04-25T06:38:07;7.60;;;2.50;;
75059;SDS011;63640;59.264;18.116;2023-04-25T06:40:32;6.80;;;2.70;;
75059;SDS011;63640;59.264;18.116;2023-04-25T06:42:58;6.68;;;2.60;;
75059;SDS011;63640;59.264;18.116;2023-04-25T06:45:23;6.05;;;2.78;;
75059;SDS011;63640;59.264;18.116;2023-04-25T06:47:49;6.05;;;2.65;;
75059;SDS011;63640;59.264;18.116;2023-04-25T06:50:14;6.25;;;2.47;;
75059;SDS011;63640;59.264;18.116;2023-04-25T06:52:39;6.38;;;2.80;;
75059;SDS011;63640;59.264;18.116;2023-04-25T06:55:05;6.13;;;2.55;;
75059;SDS011;63640;59.264;18.116;2023-04-25T06:57:31;6.88;;;3.42;;
75059;SDS011;63640;59.264;18.116;2023-04-25T06:59:56;7.03;;;2.65;;
75059;SDS011;63640;59.264;18.116;2023-04-25T07:02:22;5.93;;;2.50;;
75059;SDS011;63640;59.264;18.116;2023-04-25T07:04:47;6.18;;;2.40;;
75059;SDS011;63640;59.264;18.116;2023-04-25T07:07:13;6.40;;;2.28;;
75059;SDS011;63640;59.264;18.116;2023-04-25T07:09:38;6.40;;;3.08;;
75059;SDS011;63640;59.264;18.116;2023-04-25T07:12:04;9.18;;;3.50;;
75059;SDS011;63640;59.264;18.116;2023-04-25T07:14:30;6.20;;;2.67;;
75059;SDS011;63640;59.264;18.116;2023-04-25T07:16:55;8.32;;;3.53;;
75059;SDS011;63640;59.264;18.116;2023-04-25T07:19:22;7.13;;;3.28;;
75059;SDS011;63640;59.264;18.116;2023-04-25T07:21:51;8.27;;;3.13;;
75059;SDS011;63640;59.264;18.116;2023-04-25T07:24:17;7.60;;;3.78;;
75059;SDS011;63640;59.264;18.116;2023-04-25T07:26:42;7.90;;;3.05;;
75059;SDS011;63640;59.264;18.116;2023-04-25T07:29:08;7.63;;;3.35;;
75059;SDS011;63640;59.264;18.116;2023-04-25T07:31:34;6.80;;;3.33;;
75059;SDS011;63640;59.264;18.116;2023-04-25T07:33:59;8.55;;;3.40;;
75059;SDS011;63640;59.264;18.116;2023-04-25T07:36:25;7.68;;;3.00;;
75059;SDS011;63640;59.264;18.116;2023-04-25T07:38:51;8.57;;;3.67;;
75059;SDS011;63640;59.264;18.116;2023-04-25T07:41:16;9.95;;;3.30;;
75059;SDS011;63640;59.264;18.116;2023-04-25T07:43:42;8.05;;;3.60;;
75059;SDS011;63640;59.264;18.116;2023-04-25T07:46:07;8.40;;;3.38;;
75059;SDS011;63640;59.264;18.116;2023-04-25T07:48:33;7.47;;;3.33;;
75059;SDS011;63640;59.264;18.116;2023-04-25T07:50:58;10.75;;;4.10;;
75059;SDS011;63640;59.264;18.116;2023-04-25T07:53:24;7.50;;;3.58;;
75059;SDS011;63640;59.264;18.116;2023-04-25T07:55:50;6.75;;;3.55;;
75059;SDS011;63640;59.264;18.116;2023-04-25T07:58:15;8.63;;;3.60;;
75059;SDS011;63640;59.264;18.116;2023-04-25T08:00:46;7.95;;;3.78;;
75059;SDS011;63640;59.264;18.116;2023-04-25T08:03:11;10.05;;;4.20;;
75059;SDS011;63640;59.264;18.116;2023-04-25T08:05:37;12.48;;;5.35;;
75059;SDS011;63640;59.264;18.116;2023-04-25T08:08:02;10.20;;;4.70;;
75059;SDS011;63640;59.264;18.116;2023-04-25T08:10:29;11.00;;;4.28;;
75059;SDS011;63640;59.264;18.116;2023-04-25T08:12:55;7.80;;;3.88;;
75059;SDS011;63640;59.264;18.116;2023-04-25T08:15:20;9.20;;;4.55;;
75059;SDS011;63640;59.264;18.116;2023-04-25T08:17:46;12.85;;;5.57;;
75059;SDS011;63640;59.264;18.116;2023-04-25T08:20:11;14.30;;;5.80;;
75059;SDS011;63640;59.264;18.116;2023-04-25T08:22:37;12.68;;;5.35;;
75059;SDS011;63640;59.264;18.116;2023-04-25T08:25:03;9.98;;;5.10;;
75059;SDS011;63640;59.264;18.116;2023-04-25T08:27:28;10.95;;;4.65;;
75059;SDS011;63640;59.264;18.116;2023-04-25T08:29:54;11.82;;;5.18;;
75059;SDS011;63640;59.264;18.116;2023-04-25T08:32:20;10.35;;;4.80;;
75059;SDS011;63640;59.264;18.116;2023-04-25T08:34:46;9.85;;;5.20;;
75059;SDS011;63640;59.264;18.116;2023-04-25T08:37:12;11.27;;;4.72;;
75059;SDS011;63640;59.264;18.116;2023-04-25T08:39:37;9.43;;;4.47;;
75059;SDS011;63640;59.264;18.116;2023-04-25T08:42:05;9.98;;;4.57;;
75059;SDS011;63640;59.264;18.116;2023-04-25T08:44:35;12.32;;;5.05;;
75059;SDS011;63640;59.264;18.116;2023-04-25T08:47:02;13.05;;;5.35;;
75059;SDS011;63640;59.264;18.116;2023-04-25T08:49:30;12.25;;;5.80;;
75059;SDS011;63640;59.264;18.116;2023-04-25T08:51:57;12.77;;;5.53;;
75059;SDS011;63640;59.264;18.116;2023-04-25T08:54:25;12.45;;;5.35;;
75059;SDS011;63640;59.264;18.116;2023-04-25T08:56:53;10.13;;;4.43;;
75059;SDS011;63640;59.264;18.116;2023-04-25T08:59:21;13.10;;;5.75;;
75059;SDS011;63640;59.264;18.116;2023-04-25T09:01:48;9.93;;;4.88;;
75059;SDS011;63640;59.264;18.116;2023-04-25T09:04:14;10.35;;;4.90;;
75059;SDS011;63640;59.264;18.116;2023-04-25T09:06:40;8.88;;;3.67;;
75059;SDS011;63640;59.264;18.116;2023-04-25T09:09:07;9.43;;;4.20;;
75059;SDS011;63640;59.264;18.116;2023-04-25T09:11:33;10.70;;;4.70;;
75059;SDS011;63640;59.264;18.116;2023-04-25T09:19:24;8.20;;;3.97;;
75059;SDS011;63640;59.264;18.116;2023-04-25T09:22:02;10.23;;;5.05;;
75059;SDS011;63640;59.264;18.116;2023-04-25T09:26:57;8.20;;;3.95;;
75059;SDS011;63640;59.264;18.116;2023-04-25T09:29:32;9.45;;;4.55;;
75059;SDS011;63640;59.264;18.116;2023-04-25T09:32:12;9.43;;;4.10;;
75059;SDS011;63640;59.264;18.116;2023-04-25T09:34:48;12.30;;;5.68;;
75059;SDS011;63640;59.264;18.116;2023-04-25T09:37:19;8.18;;;3.65;;
75059;SDS011;63640;59.264;18.116;2023-04-25T09:39:49;10.85;;;3.80;;
75059;SDS011;63640;59.264;18.116;2023-04-25T09:42:16;7.20;;;3.90;;
75059;SDS011;63640;59.264;18.116;2023-04-25T09:44:43;8.25;;;3.55;;
75059;SDS011;63640;59.264;18.116;2023-04-25T09:47:10;7.85;;;3.67;;
75059;SDS011;63640;59.264;18.116;2023-04-25T09:49:38;6.68;;;3.10;;
75059;SDS011;63640;59.264;18.116;2023-04-25T09:52:06;6.93;;;3.50;;
75059;SDS011;63640;59.264;18.116;2023-04-25T09:54:31;8.25;;;4.40;;
75059;SDS011;63640;59.264;18.116;2023-04-25T09:56:57;9.32;;;3.80;;
75059;SDS011;63640;59.264;18.116;2023-04-25T09:59:36;7.63;;;3.83;;
75059;SDS011;63640;59.264;18.116;2023-04-25T10:02:04;9.48;;;4.32;;
75059;SDS011;63640;59.264;18.116;2023-04-25T10:04:30;8.30;;;4.00;;
75059;SDS011;63640;59.264;18.116;2023-04-25T10:06:59;7.70;;;3.65;;
75059;SDS011;63640;59.264;18.116;2023-04-25T10:09:26;8.77;;;3.85;;
75059;SDS011;63640;59.264;18.116;2023-04-25T10:11:54;7.85;;;3.70;;
75059;SDS011;63640;59.264;18.116;2023-04-25T10:14:19;8.07;;;3.88;;
75059;SDS011;63640;59.264;18.116;2023-04-25T10:16:47;7.32;;;3.35;;
75059;SDS011;63640;59.264;18.116;2023-04-25T10:19:13;7.57;;;3.90;;
75059;SDS011;63640;59.264;18.116;2023-04-25T10:21:40;7.75;;;3.92;;
75059;SDS011;63640;59.264;18.116;2023-04-25T10:24:11;7.15;;;3.67;;
75059;SDS011;63640;59.264;18.116;2023-04-25T10:26:37;7.80;;;4.05;;
75059;SDS011;63640;59.264;18.116;2023-04-25T10:29:03;9.10;;;4.35;;
75059;SDS011;63640;59.264;18.116;2023-04-25T10:31:29;7.05;;;3.72;;
75059;SDS011;63640;59.264;18.116;2023-04-25T10:33:55;6.20;;;3.35;;
75059;SDS011;63640;59.264;18.116;2023-04-25T10:36:22;8.05;;;3.85;;
75059;SDS011;63640;59.264;18.116;2023-04-25T10:38:49;9.05;;;4.47;;
75059;SDS011;63640;59.264;18.116;2023-04-25T10:41:19;7.63;;;3.45;;
75059;SDS011;63640;59.264;18.116;2023-04-25T10:43:46;6.88;;;3.40;;
75059;SDS011;63640;59.264;18.116;2023-04-25T10:48:49;9.52;;;4.28;;
75059;SDS011;63640;59.264;18.116;2023-04-25T10:51:17;9.38;;;4.93;;
75059;SDS011;63640;59.264;18.116;2023-04-25T10:53:48;10.25;;;4.57;;
75059;SDS011;63640;59.264;18.116;2023-04-25T10:56:38;7.57;;;3.88;;
75059;SDS011;63640;59.264;18.116;2023-04-25T11:01:41;8.40;;;4.10;;
75059;SDS011;63640;59.264;18.116;2023-04-25T11:04:30;9.90;;;3.85;;
75059;SDS011;63640;59.264;18.116;2023-04-25T11:09:34;7.15;;;4.05;;
75059;SDS011;63640;59.264;18.116;2023-04-25T11:12:00;8.68;;;3.10;;
75059;SDS011;63640;59.264;18.116;2023-04-25T11:14:26;10.50;;;4.07;;
75059;SDS011;63640;59.264;18.116;2023-04-25T11:16:55;8.05;;;3.85;;
75059;SDS011;63640;59.264;18.116;2023-04-25T11:19:24;7.65;;;4.20;;
75059;SDS011;63640;59.264;18.116;2023-04-25T11:21:50;9.10;;;4.38;;
75059;SDS011;63640;59.264;18.116;2023-04-25T11:24:30;7.03;;;3.72;;
75059;SDS011;63640;59.264;18.116;2023-04-25T11:26:57;5.25;;;2.70;;
75059;SDS011;63640;59.264;18.116;2023-04-25T11:29:23;7.00;;;3.40;;
75059;SDS011;63640;59.264;18.116;2023-04-25T11:31:52;5.80;;;2.83;;
75059;SDS011;63640;59.264;18.116;2023-04-25T11:34:18;6.32;;;3.03;;
75059;SDS011;63640;59.264;18.116;2023-04-25T11:36:44;6.43;;;3.60;;
75059;SDS011;63640;59.264;18.116;2023-04-25T11:39:10;6.60;;;3.20;;
75059;SDS011;63640;59.264;18.116;2023-04-25T11:41:40;7.70;;;3.40;;
75059;SDS011;63640;59.264;18.116;2023-04-25T11:44:06;6.70;;;3.67;;
75059;SDS011;63640;59.264;18.116;2023-04-25T11:46:35;7.30;;;3.60;;
75059;SDS011;63640;59.264;18.116;2023-04-25T11:49:00;6.80;;;3.90;;
75059;SDS011;63640;59.264;18.116;2023-04-25T11:51:26;7.85;;;3.65;;
75059;SDS011;63640;59.264;18.116;2023-04-25T11:53:52;8.30;;;4.22;;
75059;SDS011;63640;59.264;18.116;2023-04-25T11:56:17;7.25;;;3.80;;
75059;SDS011;63640;59.264;18.116;2023-04-25T11:58:59;7.90;;;4.53;;
75059;SDS011;63640;59.264;18.116;2023-04-25T12:01:32;6.85;;;3.80;;
75059;SDS011;63640;59.264;18.116;2023-04-25T12:04:15;7.38;;;4.25;;
75059;SDS011;63640;59.264;18.116;2023-04-25T12:06:43;7.07;;;3.80;;
75059;SDS011;63640;59.264;18.116;2023-04-25T12:09:12;7.25;;;4.13;;
75059;SDS011;63640;59.264;18.116;2023-04-25T12:11:41;7.20;;;3.40;;
75059;SDS011;63640;59.264;18.116;2023-04-25T12:14:08;8.10;;;4.05;;
75059;SDS011;63640;59.264;18.116;2023-04-25T12:16:44;9.40;;;4.85;;
75059;SDS011;63640;59.264;18.116;2023-04-25T12:19:14;8.38;;;4.88;;
75059;SDS011;63640;59.264;18.116;2023-04-25T12:21:41;14.10;;;5.07;;
75059;SDS011;63640;59.264;18.116;2023-04-25T12:24:13;8.45;;;4.88;;
75059;SDS011;63640;59.264;18.116;2023-04-25T12:27:02;8.40;;;5.03;;
75059;SDS011;63640;59.264;18.116;2023-04-25T12:29:30;8.35;;;4.75;;
75059;SDS011;63640;59.264;18.116;2023-04-25T12:31:56;9.90;;;5.60;;
75059;SDS011;63640;59.264;18.116;2023-04-25T12:34:23;10.07;;;6.00;;
75059;SDS011;63640;59.264;18.116;2023-04-25T12:36:49;9.90;;;5.25;;
75059;SDS011;63640;59.264;18.116;2023-04-25T12:39:17;10.68;;;5.63;;
75059;SDS011;63640;59.264;18.116;2023-04-25T12:41:44;9.05;;;5.15;;
75059;SDS011;63640;59.264;18.116;2023-04-25T12:44:10;10.63;;;5.57;;
75059;SDS011;63640;59.264;18.116;2023-04-25T12:46:36;10.20;;;5.47;;
75059;SDS011;63640;59.264;18.116;2023-04-25T12:49:03;8.85;;;4.93;;
75059;SDS011;63640;59.264;18.116;2023-04-25T12:51:29;8.63;;;4.97;;
75059;SDS011;63640;59.264;18.116;2023-04-25T12:53:54;9.15;;;4.20;;
75059;SDS011;63640;59.264;18.116;2023-04-25T12:56:20;8.75;;;4.38;;
75059;SDS011;63640;59.264;18.116;2023-04-25T12:58:45;8.98;;;4.35;;
75059;SDS011;63640;59.264;18.116;2023-04-25T13:01:11;7.45;;;4.05;;
75059;SDS011;63640;59.264;18.116;2023-04-25T13:03:38;8.27;;;3.78;;
75059;SDS011;63640;59.264;18.116;2023-04-25T13:06:04;10.27;;;3.67;;
75059;SDS011;63640;59.264;18.116;2023-04-25T13:08:30;8.48;;;4.32;;
75059;SDS011;63640;59.264;18.116;2023-04-25T13:10:56;7.95;;;4.10;;
75059;SDS011;63640;59.264;18.116;2023-04-25T13:13:21;7.22;;;3.90;;
75059;SDS011;63640;59.264;18.116;2023-04-25T13:15:47;8.55;;;3.40;;
75059;SDS011;63640;59.264;18.116;2023-04-25T13:18:12;8.35;;;3.63;;
75059;SDS011;63640;59.264;18.116;2023-04-25T13:20:38;7.45;;;4.20;;
75059;SDS011;63640;59.264;18.116;2023-04-25T13:23:03;8.57;;;4.10;;
75059;SDS011;63640;59.264;18.116;2023-04-25T13:25:29;8.20;;;4.05;;
75059;SDS011;63640;59.264;18.116;2023-04-25T13:27:55;7.50;;;4.13;;
75059;SDS011;63640;59.264;18.116;2023-04-25T13:30:20;8.45;;;4.00;;
75059;SDS011;63640;59.264;18.116;2023-04-25T13:32:46;7.90;;;3.83;;
75059;SDS011;63640;59.264;18.116;2023-04-25T13:35:12;6.43;;;3.15;;
75059;SDS011;63640;59.264;18.116;2023-04-25T13:37:39;6.65;;;3.00;;
75059;SDS011;63640;59.264;18.116;2023-04-25T13:40:09;8.50;;;3.80;;
75059;SDS011;63640;59.264;18.116;2023-04-25T13:42:36;7.32;;;3.88;;
75059;SDS011;63640;59.264;18.116;2023-04-25T13:45:02;9.85;;;3.95;;
75059;SDS011;63640;59.264;18.116;2023-04-25T13:47:28;9.48;;;4.53;;
75059;SDS011;63640;59.264;18.116;2023-04-25T13:49:54;8.68;;;4.45;;
75059;SDS011;63640;59.264;18.116;2023-04-25T13:52:19;9.55;;;5.00;;
75059;SDS011;63640;59.264;18.116;2023-04-25T13:54:45;11.05;;;4.70;;
75059;SDS011;63640;59.264;18.116;2023-04-25T13:57:11;11.07;;;5.10;;
75059;SDS011;63640;59.264;18.116;2023-04-25T13:59:36;13.27;;;5.82;;
75059;SDS011;63640;59.264;18.116;2023-04-25T14:02:02;10.02;;;4.90;;
75059;SDS011;63640;59.264;18.116;2023-04-25T14:04:28;8.40;;;3.90;;
75059;SDS011;63640;59.264;18.116;2023-04-25T14:06:53;8.93;;;4.15;;
75059;SDS011;63640;59.264;18.116;2023-04-25T14:09:20;8.13;;;3.60;;
75059;SDS011;63640;59.264;18.116;2023-04-25T14:11:50;8.68;;;4.18;;
75059;SDS011;63640;59.264;18.116;2023-04-25T14:14:17;9.07;;;4.50;;
75059;SDS011;63640;59.264;18.116;2023-04-25T14:16:43;9.25;;;4.00;;
75059;SDS011;63640;59.264;18.116;2023-04-25T14:19:08;7.68;;;3.55;;
75059;SDS011;63640;59.264;18.116;2023-04-25T14:21:34;7.00;;;3.40;;
75059;SDS011;63640;59.264;18.116;2023-04-25T14:24:00;7.57;;;3.22;;
75059;SDS011;63640;59.264;18.116;2023-04-25T14:26:25;7.65;;;3.58;;
75059;SDS011;63640;59.264;18.116;2023-04-25T14:28:51;8.63;;;3.33;;
75059;SDS011;63640;59.264;18.116;2023-04-25T14:31:17;7.88;;;3.40;;
75059;SDS011;63640;59.264;18.116;2023-04-25T14:33:43;7.93;;;3.45;;
75059;SDS011;63640;59.264;18.116;2023-04-25T14:36:08;6.40;;;2.92;;
75059;SDS011;63640;59.264;18.116;2023-04-25T14:38:35;8.27;;;3.30;;
75059;SDS011;63640;59.264;18.116;2023-04-25T14:41:00;6.70;;;3.28;;
75059;SDS011;63640;59.264;18.116;2023-04-25T14:43:26;7.82;;;2.83;;
75059;SDS011;63640;59.264;18.116;2023-04-25T14:45:51;8.65;;;3.28;;